Time;durP1;ratioP1;P1;durP2;ratioP2;P2;SDS_P1;SDS_P2;PMS_P1;PMS_P2;Temp;Humidity;BMP_temperature;BMP_pressure;BME280_temperature;BME280_humidity;BME280_pressure;Samples;Min_cycle;Max_cycle;Signal;HPM_P1;HPM_P2
2023/03/26 00:00:44;;;;;;;1.87;0.67;;;7.70;99.90;;;;;;4997762;28;20219;-84
2023/03/26 00:03:11;;;;;;;0.70;0.70;;;7.70;99.90;;;;;;5011075;28;20227;-84
2023/03/26 00:05:38;;;;;;;1.37;0.70;;;7.70;99.90;;;;;;5020320;28;20806;-85
2023/03/26 00:08:07;;;;;;;2.43;1.57;;;7.60;99.90;;;;;;5016156;28;20210;-84
2023/03/26 00:10:35;;;;;;;10.20;2.97;;;7.60;99.90;;;;;;5018587;28;20186;-85
2023/03/26 00:13:02;;;;;;;0.60;0.60;;;7.60;99.90;;;;;;5010580;28;20227;-85
2023/03/26 00:15:28;;;;;;;2.87;0.43;;;7.50;99.90;;;;;;5009801;28;20223;-85
2023/03/26 00:17:55;;;;;;;0.50;0.50;;;7.50;99.90;;;;;;5009327;28;20721;-85
2023/03/26 00:20:20;;;;;;;0.40;0.40;;;7.50;99.90;;;;;;5013772;28;20199;-84
2023/03/26 00:22:46;;;;;;;0.50;0.50;;;7.40;99.90;;;;;;5003593;28;20193;-85
2023/03/26 00:25:13;;;;;;;2.17;1.93;;;7.40;99.90;;;;;;5017952;28;20243;-85
2023/03/26 00:27:39;;;;;;;1.77;1.67;;;7.40;99.90;;;;;;5017904;28;20225;-85
2023/03/26 00:30:06;;;;;;;0.30;0.30;;;7.40;99.90;;;;;;5017210;28;20305;-85
2023/03/26 00:32:32;;;;;;;9.20;1.27;;;7.40;99.90;;;;;;5022320;28;20222;-85
2023/03/26 00:34:59;;;;;;;0.27;0.27;;;7.30;99.90;;;;;;5006351;28;20233;-85
2023/03/26 00:37:25;;;;;;;0.93;0.87;;;7.40;99.90;;;;;;5005593;28;20214;-84
2023/03/26 00:40:03;;;;;;;0.60;0.60;;;7.40;99.90;;;;;;5003431;28;20570;-84
2023/03/26 00:42:29;;;;;;;2.10;0.80;;;7.40;99.90;;;;;;5014121;28;20306;-85
2023/03/26 00:44:56;;;;;;;0.60;0.60;;;7.40;99.90;;;;;;5002906;28;20248;-84
2023/03/26 00:47:26;;;;;;;7.87;1.57;;;7.50;99.90;;;;;;5016677;28;20253;-85
2023/03/26 00:49:53;;;;;;;1.50;0.93;;;7.50;99.90;;;;;;5020593;28;20167;-85
2023/03/26 00:52:22;;;;;;;7.23;0.93;;;7.60;99.90;;;;;;5018289;28;20349;-85
2023/03/26 00:54:50;;;;;;;0.70;0.70;;;7.60;99.90;;;;;;5020480;28;20221;-84
2023/03/26 00:57:19;;;;;;;1.43;1.40;;;7.60;99.90;;;;;;5005013;28;20257;-85
2023/03/26 00:59:45;;;;;;;1.17;1.07;;;7.60;99.90;;;;;;5013137;28;20695;-85
2023/03/26 01:02:15;;;;;;;0.20;0.20;;;7.60;99.90;;;;;;5012032;28;20194;-85
2023/03/26 01:04:45;;;;;;;16.80;2.80;;;7.70;99.90;;;;;;5008660;28;20235;-84
2023/03/26 01:07:20;;;;;;;1.60;0.93;;;7.60;99.90;;;;;;5000950;28;20305;-83
2023/03/26 01:09:51;;;;;;;1.40;0.70;;;7.60;99.90;;;;;;5002428;28;20585;-84
2023/03/26 01:12:21;;;;;;;0.50;0.50;;;7.60;99.90;;;;;;5017954;28;20214;-85
2023/03/26 01:14:49;;;;;;;0.30;0.30;;;7.60;99.90;;;;;;5006101;28;20242;-85
2023/03/26 01:17:16;;;;;;;0.47;0.47;;;7.60;99.90;;;;;;5007271;28;20186;-85
2023/03/26 01:19:51;;;;;;;0.40;0.40;;;7.60;99.90;;;;;;4999765;28;20664;-85
2023/03/26 01:22:24;;;;;;;2.77;2.47;;;7.70;99.90;;;;;;4992961;28;20769;-85
2023/03/26 01:24:55;;;;;;;0.90;0.70;;;7.70;99.90;;;;;;5011572;28;20408;-85
2023/03/26 01:27:30;;;;;;;0.67;0.67;;;7.70;99.90;;;;;;5019501;28;20523;-84
2023/03/26 01:30:24;;;;;;;0.50;0.50;;;7.70;99.90;;;;;;5025545;28;20218;-84
2023/03/26 01:33:28;;;;;;;0.60;0.60;;;7.70;99.90;;;;;;5017611;28;20718;-84
2023/03/26 01:36:05;;;;;;;0.67;0.50;;;7.70;99.90;;;;;;5007430;28;20290;-85
2023/03/26 01:38:34;;;;;;;0.40;0.40;;;7.70;99.90;;;;;;5019104;28;20671;-85
2023/03/26 01:41:27;;;;;;;0.40;0.40;;;7.70;99.90;;;;;;4994390;28;20783;-85
2023/03/26 01:44:02;;;;;;;1.27;1.00;;;7.70;99.90;;;;;;5025561;28;20553;-85
2023/03/26 01:46:34;;;;;;;3.70;1.13;;;7.70;99.90;;;;;;5007981;28;20206;-85
2023/03/26 01:49:02;;;;;;;3.83;0.70;;;7.70;99.90;;;;;;5019679;28;20916;-85
2023/03/26 01:51:30;;;;;;;0.50;0.50;;;7.70;99.90;;;;;;5020765;28;20300;-85
2023/03/26 01:53:57;;;;;;;9.10;0.97;;;7.70;99.90;;;;;;5024933;28;20226;-85
2023/03/26 01:56:42;;;;;;;1.33;1.10;;;7.60;99.90;;;;;;5021652;28;20231;-85
2023/03/26 01:59:37;;;;;;;2.53;0.70;;;7.60;99.90;;;;;;5001497;28;20182;-85
2023/03/26 02:02:35;;;;;;;6.20;0.87;;;7.60;99.90;;;;;;5025533;28;20182;-85
2023/03/26 02:05:01;;;;;;;5.73;0.73;;;7.60;99.90;;;;;;5010894;28;20754;-85
2023/03/26 02:08:01;;;;;;;8.57;1.17;;;7.60;99.90;;;;;;5025353;28;20285;-85
2023/03/26 02:10:37;;;;;;;5.73;1.33;;;7.50;99.90;;;;;;5005056;28;20567;-85
2023/03/26 02:13:04;;;;;;;1.80;0.43;;;7.50;99.90;;;;;;5013924;28;20238;-85
2023/03/26 02:15:31;;;;;;;0.33;0.33;;;7.50;99.90;;;;;;5024129;28;20232;-86
2023/03/26 02:17:58;;;;;;;0.50;0.50;;;7.50;99.90;;;;;;5000798;28;20218;-85
2023/03/26 02:20:28;;;;;;;10.93;1.13;;;7.60;99.90;;;;;;5016944;28;20724;-85
2023/03/26 02:22:55;;;;;;;0.40;0.40;;;7.50;99.90;;;;;;5004873;28;20187;-85
2023/03/26 02:25:21;;;;;;;0.57;0.57;;;7.50;99.90;;;;;;5019423;28;20258;-85
2023/03/26 02:27:49;;;;;;;1.97;1.80;;;7.50;99.90;;;;;;5022945;28;20862;-85
2023/03/26 02:30:19;;;;;;;0.93;0.93;;;7.40;99.90;;;;;;5009788;28;20218;-85
2023/03/26 02:32:45;;;;;;;4.20;0.77;;;7.40;99.90;;;;;;5017916;28;20285;-85
2023/03/26 02:35:12;;;;;;;7.13;1.03;;;7.30;99.90;;;;;;5016813;28;20191;-85
2023/03/26 02:37:38;;;;;;;2.23;0.67;;;7.30;99.90;;;;;;5021822;28;20647;-85
2023/03/26 02:40:09;;;;;;;1.20;1.20;;;7.30;99.90;;;;;;5004128;28;20211;-85
2023/03/26 02:42:36;;;;;;;3.37;2.07;;;7.30;99.90;;;;;;5023391;28;20214;-84
2023/03/26 02:45:02;;;;;;;9.23;3.13;;;7.40;99.90;;;;;;5016941;28;20238;-85
2023/03/26 02:47:28;;;;;;;7.50;2.23;;;7.40;99.90;;;;;;5002671;28;20214;-85
2023/03/26 02:49:54;;;;;;;3.60;1.53;;;7.40;99.90;;;;;;5019876;28;20223;-85
2023/03/26 02:52:20;;;;;;;1.87;1.60;;;7.40;99.90;;;;;;5017488;28;20377;-85
2023/03/26 02:54:46;;;;;;;1.70;0.60;;;7.40;99.90;;;;;;5016963;28;20772;-85
2023/03/26 02:57:11;;;;;;;1.20;1.03;;;7.40;99.90;;;;;;5017449;28;20260;-85
2023/03/26 02:59:37;;;;;;;0.50;0.33;;;7.40;99.90;;;;;;5012025;28;20264;-85
2023/03/26 03:02:03;;;;;;;0.40;0.40;;;7.30;99.90;;;;;;5006266;28;20561;-84
2023/03/26 03:04:29;;;;;;;0.63;0.63;;;7.40;99.90;;;;;;5018892;28;20218;-85
2023/03/26 03:06:56;;;;;;;0.73;0.73;;;7.30;99.90;;;;;;5002892;28;20227;-85
2023/03/26 03:09:25;;;;;;;0.70;0.70;;;7.40;99.90;;;;;;4996994;28;20220;-85
2023/03/26 03:11:51;;;;;;;0.30;0.30;;;7.30;99.90;;;;;;5010603;28;20206;-85
2023/03/26 03:14:17;;;;;;;0.70;0.70;;;7.30;99.90;;;;;;5007770;28;20649;-85
2023/03/26 03:16:44;;;;;;;0.77;0.77;;;7.40;99.90;;;;;;5003824;28;21007;-85
2023/03/26 03:19:10;;;;;;;0.80;0.80;;;7.30;99.90;;;;;;5010630;28;20284;-85
2023/03/26 03:21:35;;;;;;;0.27;0.27;;;7.30;99.90;;;;;;5002467;28;20498;-84
2023/03/26 03:24:01;;;;;;;0.77;0.77;;;7.30;99.90;;;;;;5023326;28;20548;-85
2023/03/26 03:26:28;;;;;;;21.67;1.07;;;7.20;99.90;;;;;;5012015;28;20241;-85
2023/03/26 03:28:56;;;;;;;0.27;0.27;;;7.20;99.90;;;;;;5022447;28;20255;-84
2023/03/26 03:31:23;;;;;;;0.30;0.30;;;7.20;99.90;;;;;;5005668;28;20680;-85
2023/03/26 03:33:50;;;;;;;0.30;0.30;;;7.10;99.90;;;;;;5008929;28;20227;-85
2023/03/26 03:36:22;;;;;;;2.37;1.20;;;7.10;99.90;;;;;;5000060;28;20291;-86
2023/03/26 03:38:49;;;;;;;0.37;0.37;;;7.10;99.90;;;;;;5022980;28;20273;-85
2023/03/26 03:41:17;;;;;;;0.30;0.30;;;7.10;99.90;;;;;;5008790;28;20183;-86
2023/03/26 03:43:43;;;;;;;0.30;0.30;;;7.10;99.90;;;;;;5016160;28;20218;-86
2023/03/26 03:46:09;;;;;;;4.80;1.33;;;7.10;99.90;;;;;;4998427;28;20233;-86
2023/03/26 03:48:37;;;;;;;0.60;0.50;;;7.10;99.90;;;;;;4998306;28;20298;-85
2023/03/26 03:51:03;;;;;;;1.03;0.93;;;7.10;99.90;;;;;;5005282;28;20317;-86
2023/03/26 03:53:29;;;;;;;2.90;1.13;;;7.00;99.90;;;;;;5009233;28;20739;-86
2023/03/26 03:55:55;;;;;;;2.93;1.57;;;7.00;99.90;;;;;;5007905;28;20880;-86
2023/03/26 03:58:23;;;;;;;0.33;0.33;;;7.00;99.90;;;;;;5016336;28;20401;-85
2023/03/26 04:00:50;;;;;;;0.70;0.57;;;7.00;99.90;;;;;;5015597;28;20227;-86
2023/03/26 04:03:17;;;;;;;4.60;1.33;;;7.00;99.90;;;;;;5005986;28;20233;-86
2023/03/26 04:05:53;;;;;;;11.67;0.93;;;6.90;99.90;;;;;;5022583;28;20233;-86
2023/03/26 04:08:23;;;;;;;0.80;0.80;;;6.90;99.90;;;;;;5023043;28;20188;-85
2023/03/26 04:10:49;;;;;;;2.10;0.93;;;7.00;99.90;;;;;;5023300;28;20187;-86
2023/03/26 04:13:16;;;;;;;14.50;1.13;;;6.90;99.90;;;;;;5007049;28;20269;-86
2023/03/26 04:15:42;;;;;;;0.63;0.63;;;6.80;99.90;;;;;;5020827;28;20648;-86
2023/03/26 04:18:11;;;;;;;0.80;0.80;;;6.80;99.90;;;;;;5007238;28;20218;-85
2023/03/26 04:20:40;;;;;;;4.37;1.97;;;6.60;99.90;;;;;;5004544;28;20272;-86
2023/03/26 04:23:07;;;;;;;0.33;0.33;;;6.50;99.90;;;;;;4999834;28;20651;-86
2023/03/26 04:25:35;;;;;;;10.50;1.30;;;6.40;99.90;;;;;;5017733;28;20258;-86
2023/03/26 04:28:07;;;;;;;0.93;0.83;;;6.30;99.90;;;;;;5013598;28;20959;-86
2023/03/26 04:30:33;;;;;;;0.50;0.50;;;6.30;99.90;;;;;;5021036;28;20326;-85
2023/03/26 04:33:05;;;;;;;1.83;1.40;;;6.20;99.90;;;;;;5019741;28;20719;-85
2023/03/26 04:35:35;;;;;;;3.03;1.60;;;6.10;99.90;;;;;;4998623;28;20246;-86
2023/03/26 04:38:05;;;;;;;0.50;0.50;;;6.10;99.90;;;;;;5007296;28;20179;-86
2023/03/26 04:40:33;;;;;;;0.50;0.50;;;6.00;99.90;;;;;;5018503;28;20558;-86
2023/03/26 04:43:01;;;;;;;4.33;0.53;;;5.90;99.90;;;;;;5016816;28;20218;-85
2023/03/26 04:45:29;;;;;;;0.97;0.97;;;5.90;99.90;;;;;;5015471;28;20231;-86
2023/03/26 04:47:58;;;;;;;0.63;0.63;;;5.80;99.90;;;;;;5015042;28;20474;-85
2023/03/26 04:50:25;;;;;;;0.83;0.60;;;5.90;99.90;;;;;;5024446;28;20276;-86
2023/03/26 04:52:55;;;;;;;10.53;0.73;;;5.90;99.90;;;;;;5006760;28;20206;-86
2023/03/26 04:55:35;;;;;;;0.90;0.90;;;5.90;99.90;;;;;;5000114;28;20206;-85
2023/03/26 04:58:04;;;;;;;13.60;0.77;;;5.90;99.90;;;;;;5020355;28;20372;-86
2023/03/26 05:00:31;;;;;;;1.33;0.93;;;5.90;99.90;;;;;;5003978;28;20256;-85
2023/03/26 05:03:00;;;;;;;0.40;0.40;;;6.00;99.90;;;;;;5021742;28;20230;-86
2023/03/26 05:05:27;;;;;;;3.13;1.17;;;6.10;99.90;;;;;;5014626;28;20239;-86
2023/03/26 05:07:54;;;;;;;6.53;1.57;;;6.10;99.90;;;;;;5018729;28;20199;-85
2023/03/26 05:10:20;;;;;;;2.20;0.97;;;6.00;99.90;;;;;;5015479;28;20222;-85
2023/03/26 05:12:46;;;;;;;6.70;0.70;;;6.10;99.90;;;;;;5019024;28;20253;-86
2023/03/26 05:15:14;;;;;;;8.10;2.00;;;6.00;99.90;;;;;;4989296;28;20257;-86
2023/03/26 05:17:40;;;;;;;0.23;0.23;;;6.00;99.90;;;;;;5015192;28;20688;-86
2023/03/26 05:20:19;;;;;;;6.80;1.70;;;6.00;99.90;;;;;;4992687;28;20188;-86
2023/03/26 05:22:46;;;;;;;0.50;0.50;;;6.00;99.90;;;;;;5016780;28;20190;-86
2023/03/26 05:25:12;;;;;;;5.83;0.80;;;6.00;99.90;;;;;;5008770;28;20277;-85
2023/03/26 05:27:38;;;;;;;0.30;0.30;;;6.10;99.90;;;;;;5011406;28;20677;-85
2023/03/26 05:30:06;;;;;;;3.90;1.30;;;6.20;99.90;;;;;;4998873;28;20246;-86
2023/03/26 05:32:33;;;;;;;1.40;1.23;;;6.20;99.90;;;;;;4997242;28;20235;-86
2023/03/26 05:34:59;;;;;;;0.67;0.67;;;6.30;99.90;;;;;;5015756;28;20199;-86
2023/03/26 05:37:29;;;;;;;21.73;1.23;;;6.30;99.90;;;;;;4999844;28;20722;-86
2023/03/26 05:39:56;;;;;;;0.73;0.70;;;6.40;99.90;;;;;;5021641;28;20241;-86
2023/03/26 05:42:22;;;;;;;14.70;2.10;;;6.40;99.90;;;;;;5008208;28;20218;-86
2023/03/26 05:44:48;;;;;;;0.77;0.77;;;6.40;99.90;;;;;;5004201;28;20300;-86
2023/03/26 05:47:14;;;;;;;0.40;0.40;;;6.50;99.90;;;;;;5018092;28;20650;-84
2023/03/26 05:49:40;;;;;;;0.70;0.70;;;6.50;99.90;;;;;;5018378;28;20186;-85
2023/03/26 05:52:05;;;;;;;1.27;1.07;;;6.50;99.90;;;;;;5022320;28;20287;-86
2023/03/26 05:54:31;;;;;;;0.53;0.53;;;6.60;99.90;;;;;;5017055;28;20971;-87
2023/03/26 05:56:57;;;;;;;1.27;0.80;;;6.60;99.90;;;;;;5013801;28;20302;-86
2023/03/26 05:59:23;;;;;;;0.77;0.77;;;6.60;99.90;;;;;;5009776;28;20226;-86
2023/03/26 06:01:50;;;;;;;0.40;0.40;;;6.60;99.90;;;;;;5007936;28;20637;-86
2023/03/26 06:04:19;;;;;;;2.07;0.60;;;6.60;99.90;;;;;;5007143;28;20704;-86
2023/03/26 06:06:45;;;;;;;3.10;0.50;;;6.60;99.90;;;;;;4997768;28;20223;-85
2023/03/26 06:09:12;;;;;;;4.33;1.20;;;6.70;99.90;;;;;;5010013;28;20249;-86
2023/03/26 06:11:38;;;;;;;2.40;1.13;;;6.80;99.90;;;;;;5006531;28;20225;-87
2023/03/26 06:14:05;;;;;;;1.63;1.53;;;6.80;99.90;;;;;;5004001;28;20690;-85
2023/03/26 06:16:32;;;;;;;0.57;0.57;;;6.90;99.90;;;;;;5007107;28;20222;-84
2023/03/26 06:18:57;;;;;;;0.90;0.90;;;7.00;99.90;;;;;;5016845;28;20216;-85
2023/03/26 06:21:24;;;;;;;1.33;1.23;;;7.00;99.90;;;;;;5016182;28;20238;-85
2023/03/26 06:23:50;;;;;;;1.93;0.77;;;7.10;99.90;;;;;;5006234;28;20240;-85
2023/03/26 06:26:16;;;;;;;24.97;1.07;;;7.30;99.90;;;;;;5013276;28;20391;-84
2023/03/26 06:28:42;;;;;;;0.50;0.50;;;7.40;99.90;;;;;;5007665;28;20222;-85
2023/03/26 06:31:08;;;;;;;0.20;0.20;;;7.50;99.90;;;;;;4999740;28;20640;-84
2023/03/26 06:33:34;;;;;;;4.53;1.27;;;7.60;99.90;;;;;;5020612;28;20802;-85
2023/03/26 06:35:59;;;;;;;6.23;0.60;;;7.50;99.90;;;;;;5023983;28;20286;-85
2023/03/26 06:38:25;;;;;;;0.30;0.30;;;7.50;99.90;;;;;;5005319;28;20220;-84
2023/03/26 06:40:51;;;;;;;4.60;1.90;;;7.60;99.90;;;;;;5014952;28;20513;-85
2023/03/26 06:43:17;;;;;;;0.20;0.20;;;7.60;99.90;;;;;;5016421;28;20256;-85
2023/03/26 06:45:43;;;;;;;3.30;0.50;;;7.60;99.90;;;;;;5006616;28;20214;-88
2023/03/26 06:48:09;;;;;;;0.70;0.70;;;7.70;99.90;;;;;;5023615;28;20226;-85
2023/03/26 06:50:34;;;;;;;2.97;0.77;;;7.60;99.90;;;;;;5018109;28;20222;-85
2023/03/26 06:53:00;;;;;;;2.10;0.50;;;7.70;99.90;;;;;;5023822;28;20203;-85
2023/03/26 06:55:26;;;;;;;0.97;0.97;;;7.80;99.90;;;;;;5000295;28;20230;-85
2023/03/26 06:57:53;;;;;;;3.87;0.87;;;7.90;99.90;;;;;;5016739;28;20218;-86
2023/03/26 07:00:20;;;;;;;6.77;0.60;;;8.10;99.90;;;;;;4989247;28;20230;-85
2023/03/26 07:02:46;;;;;;;2.63;0.90;;;8.20;99.90;;;;;;5005846;28;20215;-85
2023/03/26 07:05:13;;;;;;;25.47;1.03;;;9.20;99.90;;;;;;5011779;28;20848;-85
2023/03/26 07:07:39;;;;;;;1.77;1.20;;;11.40;99.90;;;;;;5021369;28;20187;-84
2023/03/26 07:10:06;;;;;;;1.10;0.87;;;13.50;99.90;;;;;;4997566;28;20284;-85
2023/03/26 07:12:32;;;;;;;0.93;0.53;;;14.60;99.90;;;;;;5005152;28;20203;-86
2023/03/26 07:14:59;;;;;;;2.57;0.50;;;14.00;99.90;;;;;;5004945;28;20214;-85
2023/03/26 07:17:25;;;;;;;4.47;0.80;;;13.00;99.90;;;;;;5007994;28;20625;-85
2023/03/26 07:19:52;;;;;;;2.67;1.00;;;12.30;99.90;;;;;;5009393;28;20181;-85
2023/03/26 07:22:21;;;;;;;5.20;1.03;;;11.00;99.90;;;;;;5021176;28;20619;-85
2023/03/26 07:24:47;;;;;;;2.43;0.60;;;10.60;99.90;;;;;;5013634;28;20215;-86
2023/03/26 07:27:52;;;;;;;5.17;2.00;;;10.30;99.90;;;;;;4996507;28;20591;-86
2023/03/26 07:30:46;;;;;;;0.30;0.30;;;9.70;99.90;;;;;;5010499;28;20223;-85
2023/03/26 07:33:57;;;;;;;6.67;0.80;;;9.60;99.90;;;;;;4995767;28;20224;-86
2023/03/26 07:36:23;;;;;;;1.80;0.97;;;9.20;99.90;;;;;;5018843;28;20273;-86
2023/03/26 07:39:51;;;;;;;0.87;0.80;;;8.80;99.90;;;;;;5008176;28;20216;-86
2023/03/26 07:43:14;;;;;;;2.03;1.10;;;9.00;99.90;;;;;;4972564;28;20269;-85
2023/03/26 07:45:42;;;;;;;6.60;3.27;;;9.10;99.90;;;;;;4921084;29;20959;-86
2023/03/26 07:48:20;;;;;;;0.87;0.67;;;10.60;99.90;;;;;;4934673;28;20639;-86
2023/03/26 07:50:47;;;;;;;4.37;0.67;;;11.80;99.90;;;;;;4969226;28;20230;-86
2023/03/26 07:53:13;;;;;;;0.87;0.33;;;11.60;99.90;;;;;;5011960;28;20205;-86
2023/03/26 07:55:52;;;;;;;2.20;0.50;;;12.10;99.90;;;;;;5017011;28;20640;-86
2023/03/26 07:58:39;;;;;;;3.27;1.17;;;12.60;99.90;;;;;;5015063;28;20800;-86
2023/03/26 08:01:24;;;;;;;7.13;1.33;;;12.90;99.90;;;;;;5011691;28;20243;-86
2023/03/26 08:04:01;;;;;;;1.23;0.90;;;13.90;99.90;;;;;;5016669;28;20276;-86
2023/03/26 08:06:36;;;;;;;1.10;0.93;;;13.80;99.90;;;;;;5004074;28;20326;-86
2023/03/26 08:09:19;;;;;;;6.00;0.90;;;13.00;99.90;;;;;;4997119;28;20495;-85
2023/03/26 08:12:09;;;;;;;4.23;1.47;;;11.80;99.90;;;;;;5019176;28;20214;-86
2023/03/26 08:14:43;;;;;;;0.80;0.60;;;11.20;99.90;;;;;;4990703;28;20757;-85
2023/03/26 08:17:50;;;;;;;0.77;0.30;;;10.70;99.90;;;;;;5013361;28;20370;-86
2023/03/26 08:20:37;;;;;;;8.83;1.03;;;10.40;99.90;;;;;;5025015;28;20187;-85
2023/03/26 08:23:12;;;;;;;9.50;1.77;;;10.00;99.90;;;;;;5007689;28;20675;-85
2023/03/26 08:26:13;;;;;;;6.03;1.13;;;9.60;99.90;;;;;;5013256;28;20237;-86
2023/03/26 08:29:02;;;;;;;5.23;1.57;;;9.80;99.90;;;;;;4985428;28;20234;-86
2023/03/26 08:31:34;;;;;;;0.37;0.30;;;9.70;99.90;;;;;;5019532;28;20302;-86
2023/03/26 08:34:00;;;;;;;2.93;0.80;;;9.50;99.90;;;;;;5009588;28;20248;-86
2023/03/26 08:36:26;;;;;;;4.80;1.80;;;9.40;99.90;;;;;;5022376;28;20218;-86
2023/03/26 08:38:52;;;;;;;0.40;0.40;;;9.50;99.90;;;;;;5020028;28;20223;-85
2023/03/26 08:41:33;;;;;;;0.87;0.67;;;9.50;99.90;;;;;;5003034;28;20193;-85
2023/03/26 08:44:12;;;;;;;0.33;0.27;;;9.50;99.90;;;;;;5017785;28;20240;-85
2023/03/26 08:47:15;;;;;;;3.90;1.13;;;9.50;99.90;;;;;;5027566;28;20581;-85
2023/03/26 08:50:07;;;;;;;9.53;1.37;;;9.20;99.90;;;;;;5020512;28;20221;-84
2023/03/26 08:53:11;;;;;;;8.00;1.00;;;9.10;99.90;;;;;;5019979;28;20613;-85
2023/03/26 08:55:47;;;;;;;2.20;1.10;;;9.00;99.90;;;;;;5020672;28;20214;-85
2023/03/26 08:58:13;;;;;;;2.57;1.37;;;8.50;99.90;;;;;;5022808;28;20329;-85
2023/03/26 09:00:49;;;;;;;3.57;0.80;;;8.40;99.90;;;;;;5005416;28;20253;-85
2023/03/26 09:03:33;;;;;;;2.20;1.33;;;8.60;99.90;;;;;;5013214;28;20285;-85
2023/03/26 09:06:17;;;;;;;2.57;1.13;;;8.80;99.90;;;;;;5017427;28;20230;-85
2023/03/26 09:09:05;;;;;;;1.13;0.60;;;8.90;99.90;;;;;;5018952;28;20210;-85
2023/03/26 09:11:37;;;;;;;10.67;1.33;;;9.00;99.90;;;;;;5023822;28;20462;-84
2023/03/26 09:14:13;;;;;;;2.03;0.43;;;9.00;99.90;;;;;;5026616;28;20252;-85
2023/03/26 09:17:16;;;;;;;4.53;0.73;;;8.90;99.90;;;;;;5023577;28;20182;-84
2023/03/26 09:19:56;;;;;;;8.80;1.33;;;9.00;99.90;;;;;;5008200;28;20598;-85
2023/03/26 09:22:44;;;;;;;3.70;0.53;;;9.10;99.90;;;;;;5017444;28;20210;-84
2023/03/26 09:25:21;;;;;;;0.53;0.53;;;9.00;99.90;;;;;;5017355;28;20230;-85
2023/03/26 09:27:50;;;;;;;0.60;0.60;;;8.60;99.90;;;;;;5021798;28;20313;-85
2023/03/26 09:30:32;;;;;;;1.67;0.80;;;8.40;99.90;;;;;;5021606;28;20302;-86
2023/03/26 09:33:32;;;;;;;0.20;0.20;;;8.50;99.90;;;;;;5015571;28;20222;-85
2023/03/26 09:36:22;;;;;;;1.80;0.47;;;8.70;99.90;;;;;;5005213;28;20243;-86
2023/03/26 09:39:06;;;;;;;0.90;0.90;;;8.70;99.90;;;;;;5008039;28;20629;-84
2023/03/26 09:41:55;;;;;;;0.40;0.40;;;8.90;99.90;;;;;;5003062;28;20229;-84
2023/03/26 09:44:29;;;;;;;5.00;1.60;;;9.00;99.90;;;;;;4988348;28;20289;-84
2023/03/26 09:47:13;;;;;;;0.60;0.60;;;9.20;99.90;;;;;;5015175;28;20341;-85
2023/03/26 09:49:54;;;;;;;3.90;1.00;;;9.00;99.90;;;;;;5005072;28;20669;-85
2023/03/26 09:52:58;;;;;;;1.33;0.60;;;8.90;99.90;;;;;;4992425;28;20684;-85
2023/03/26 09:55:58;;;;;;;1.90;0.40;;;9.10;99.90;;;;;;4963893;28;20223;-85
2023/03/26 09:58:57;;;;;;;4.43;1.00;;;9.30;99.90;;;;;;5008116;28;20552;-84
2023/03/26 10:01:32;;;;;;;12.73;1.13;;;9.50;99.90;;;;;;5003185;28;20300;-84
2023/03/26 10:04:40;;;;;;;1.23;0.77;;;9.70;99.90;;;;;;5017615;28;20230;-84
2023/03/26 10:07:24;;;;;;;0.50;0.50;;;9.20;99.90;;;;;;5009709;28;20229;-83
2023/03/26 10:10:17;;;;;;;0.70;0.40;;;9.70;99.90;;;;;;5009098;28;20221;-83
2023/03/26 10:12:53;;;;;;;2.20;0.83;;;9.90;99.90;;;;;;5012605;28;20238;-83
2023/03/26 10:15:40;;;;;;;0.97;0.80;;;9.60;99.90;;;;;;5013054;28;20223;-85
2023/03/26 10:18:30;;;;;;;1.17;1.07;;;9.40;99.90;;;;;;5006918;28;20230;-85
2023/03/26 10:21:23;;;;;;;1.47;1.10;;;9.50;99.90;;;;;;5016030;28;20214;-84
2023/03/26 10:24:18;;;;;;;4.70;1.17;;;9.60;99.90;;;;;;5011662;28;20231;-85
2023/03/26 10:27:01;;;;;;;0.43;0.43;;;9.30;99.90;;;;;;5011008;28;20751;-85
2023/03/26 10:29:52;;;;;;;1.17;1.07;;;9.20;99.90;;;;;;5004202;28;20214;-85
2023/03/26 10:32:45;;;;;;;0.60;0.50;;;9.40;99.90;;;;;;5009754;28;20277;-84
2023/03/26 10:35:39;;;;;;;0.47;0.47;;;9.70;99.90;;;;;;5010974;28;20211;-87
2023/03/26 10:38:10;;;;;;;0.50;0.50;;;9.50;99.90;;;;;;5010690;28;20191;-86
2023/03/26 10:41:23;;;;;;;0.40;0.40;;;9.00;99.90;;;;;;5013932;28;20190;-85
2023/03/26 10:44:11;;;;;;;2.57;1.60;;;8.80;99.90;;;;;;5001934;28;20217;-85
2023/03/26 10:46:55;;;;;;;1.03;0.40;;;9.20;99.90;;;;;;5008842;28;20668;-85
2023/03/26 10:49:52;;;;;;;0.40;0.40;;;9.20;99.90;;;;;;5005841;28;20680;-85
2023/03/26 10:52:58;;;;;;;1.13;1.07;;;9.10;99.90;;;;;;4995627;28;20726;-85
2023/03/26 10:55:38;;;;;;;9.50;1.07;;;9.30;99.90;;;;;;4960336;28;20809;-86
2023/03/26 10:58:24;;;;;;;7.63;0.30;;;9.10;99.90;;;;;;4984259;28;20215;-85
2023/03/26 11:00:55;;;;;;;3.20;0.47;;;8.80;99.90;;;;;;4986483;28;20423;-85
2023/03/26 11:03:44;;;;;;;0.10;0.10;;;8.80;99.90;;;;;;5008993;28;20228;-85
2023/03/26 11:06:33;;;;;;;0.20;0.20;;;8.70;99.90;;;;;;5002262;28;21119;-85
2023/03/26 11:09:11;;;;;;;0.83;0.83;;;8.30;99.90;;;;;;4987701;28;20276;-87
2023/03/26 11:11:41;;;;;;;3.37;0.40;;;8.30;99.90;;;;;;4978155;28;20186;-85
2023/03/26 11:14:34;;;;;;;0.47;0.43;;;8.70;99.90;;;;;;4979497;28;20326;-86
2023/03/26 11:17:25;;;;;;;0.83;0.50;;;9.40;99.90;;;;;;4989987;28;20222;-85
2023/03/26 11:19:59;;;;;;;0.63;0.63;;;9.50;99.90;;;;;;4992175;28;20800;-86
2023/03/26 11:22:43;;;;;;;0.20;0.20;;;9.50;99.90;;;;;;4996573;28;20381;-83
2023/03/26 11:25:24;;;;;;;1.20;1.00;;;9.80;99.90;;;;;;4993838;28;20241;-85
2023/03/26 11:28:14;;;;;;;3.13;0.80;;;9.70;99.90;;;;;;4994698;28;20253;-87
2023/03/26 11:31:16;;;;;;;1.10;0.70;;;9.80;99.90;;;;;;4981405;28;20718;-84
2023/03/26 11:33:50;;;;;;;0.20;0.20;;;9.60;99.90;;;;;;4997090;28;20482;-84
2023/03/26 11:36:32;;;;;;;1.40;0.30;;;9.60;99.90;;;;;;4995601;28;20186;-85
2023/03/26 11:39:03;;;;;;;1.30;1.03;;;10.00;99.90;;;;;;5006922;28;20501;-84
2023/03/26 11:41:32;;;;;;;0.20;0.20;;;9.80;99.90;;;;;;4991630;28;20218;-84
2023/03/26 11:44:23;;;;;;;2.10;1.60;;;10.00;99.90;;;;;;4995886;28;20567;-85
2023/03/26 11:46:57;;;;;;;2.57;1.70;;;9.80;99.90;;;;;;4994386;28;20215;-87
2023/03/26 11:49:25;;;;;;;0.30;0.30;;;9.70;99.90;;;;;;5004545;28;20226;-87
2023/03/26 11:51:52;;;;;;;0.40;0.40;;;9.50;99.90;;;;;;5011150;28;20306;-87
2023/03/26 11:54:19;;;;;;;2.53;0.87;;;9.30;99.90;;;;;;5003616;28;20282;-88
2023/03/26 11:56:53;;;;;;;0.30;0.30;;;9.30;99.90;;;;;;4994772;28;20186;-88
2023/03/26 11:59:26;;;;;;;0.20;0.20;;;9.40;99.90;;;;;;5009110;28;20230;-87
2023/03/26 12:02:05;;;;;;;0.93;0.43;;;9.40;99.90;;;;;;5013049;28;20211;-87
2023/03/26 12:04:40;;;;;;;4.13;0.47;;;9.30;99.90;;;;;;4997645;28;20289;-87
2023/03/26 12:07:32;;;;;;;5.20;0.70;;;9.30;99.90;;;;;;5013738;28;20543;-87
2023/03/26 12:10:00;;;;;;;1.47;1.27;;;9.30;99.90;;;;;;5014920;28;20219;-87
2023/03/26 12:12:37;;;;;;;0.83;0.83;;;9.60;99.90;;;;;;5011815;28;20223;-87
2023/03/26 12:15:11;;;;;;;1.50;1.13;;;9.70;99.90;;;;;;5010128;28;20197;-88
2023/03/26 12:17:38;;;;;;;1.53;0.80;;;9.40;99.90;;;;;;5010411;28;20199;-87
2023/03/26 12:20:26;;;;;;;4.70;0.73;;;9.70;99.90;;;;;;5010863;28;20215;-90
2023/03/26 12:22:58;;;;;;;0.30;0.30;;;9.80;99.90;;;;;;5012380;28;20221;-88
2023/03/26 12:25:26;;;;;;;0.30;0.30;;;9.70;99.90;;;;;;4993748;28;20577;-88
2023/03/26 12:28:17;;;;;;;2.37;1.00;;;9.40;99.90;;;;;;4994021;28;20214;-88
2023/03/26 12:30:59;;;;;;;6.77;1.20;;;9.30;99.90;;;;;;5013530;28;20601;-87
2023/03/26 12:33:33;;;;;;;7.80;0.90;;;9.30;99.90;;;;;;4999907;28;20239;-88
2023/03/26 12:36:25;;;;;;;0.40;0.40;;;9.20;99.90;;;;;;5011378;28;20850;-86
2023/03/26 12:38:51;;;;;;;4.20;0.40;;;9.10;99.90;;;;;;5032799;28;20228;-88
2023/03/26 12:41:19;;;;;;;0.40;0.40;;;9.20;99.90;;;;;;5030882;28;20264;-87
2023/03/26 12:43:54;;;;;;;0.87;0.87;;;9.10;99.90;;;;;;5019583;28;20706;-88
2023/03/26 12:46:26;;;;;;;0.10;0.10;;;9.00;99.90;;;;;;5032210;28;20210;-88
2023/03/26 12:48:53;;;;;;;12.43;0.73;;;9.00;99.90;;;;;;5009135;28;20222;-88
2023/03/26 12:51:30;;;;;;;0.40;0.40;;;9.00;99.90;;;;;;5015262;28;20580;-88
2023/03/26 12:54:25;;;;;;;0.50;0.50;;;8.90;99.90;;;;;;5031899;28;20178;-87
2023/03/26 12:57:19;;;;;;;3.33;0.60;;;8.80;99.90;;;;;;5014257;28;20521;-88
2023/03/26 12:59:45;;;;;;;0.30;0.30;;;8.70;99.90;;;;;;5034398;28;20207;-87
2023/03/26 13:03:08;;;;;;;0.30;0.17;;;8.70;99.90;;;;;;5016900;28;20331;-87
2023/03/26 13:05:59;;;;;;;0.80;0.80;;;8.70;99.90;;;;;;4981488;28;20235;-88
2023/03/26 13:08:43;;;;;;;0.20;0.20;;;8.90;99.90;;;;;;4965078;28;20616;-87
2023/03/26 13:11:48;;;;;;;1.30;0.70;;;9.10;99.90;;;;;;5016683;28;20227;-87
2023/03/26 13:14:44;;;;;;;0.20;0.20;;;9.20;99.90;;;;;;5032475;28;20268;-87
2023/03/26 13:17:30;;;;;;;1.80;1.17;;;9.20;99.90;;;;;;5028392;28;20219;-87
2023/03/26 13:20:10;;;;;;;2.10;1.10;;;9.00;99.90;;;;;;5030057;28;20236;-88
2023/03/26 13:22:42;;;;;;;0.13;0.13;;;9.20;99.90;;;;;;5017982;28;20255;-88
2023/03/26 13:25:29;;;;;;;0.77;0.77;;;8.90;99.90;;;;;;5036691;28;20237;-87
2023/03/26 13:28:03;;;;;;;1.30;1.10;;;8.80;99.90;;;;;;5038607;28;20214;-88
2023/03/26 13:30:43;;;;;;;0.30;0.30;;;8.90;99.90;;;;;;5039275;28;20221;-86
2023/03/26 13:33:34;;;;;;;0.77;0.77;;;8.60;99.90;;;;;;5031105;28;20234;-87
2023/03/26 13:36:03;;;;;;;2.73;1.50;;;8.60;99.90;;;;;;5018120;28;20195;-88